sensor_id;sensor_type;location;lat;lon;timestamp;P1;durP1;ratioP1;P2;durP2;ratioP2
36497;SDS011;22513;51.222;6.480;2022-09-17T00:01:04;11.15;;;3.47;;
36497;SDS011;22513;51.222;6.480;2022-09-17T00:03:30;15.82;;;2.60;;
36497;SDS011;22513;51.222;6.480;2022-09-17T00:06:00;7.75;;;2.88;;
36497;SDS011;22513;51.222;6.480;2022-09-17T00:08:28;5.88;;;2.50;;
36497;SDS011;22513;51.222;6.480;2022-09-17T00:10:54;9.05;;;3.33;;
36497;SDS011;22513;51.222;6.480;2022-09-17T00:13:20;9.90;;;2.63;;
36497;SDS011;22513;51.222;6.480;2022-09-17T00:15:46;5.63;;;2.30;;
36497;SDS011;22513;51.222;6.480;2022-09-17T00:18:12;7.10;;;2.85;;
36497;SDS011;22513;51.222;6.480;2022-09-17T00:20:42;5.57;;;3.10;;
36497;SDS011;22513;51.222;6.480;2022-09-17T00:23:10;6.57;;;2.47;;
36497;SDS011;22513;51.222;6.480;2022-09-17T00:25:37;11.30;;;2.80;;
36497;SDS011;22513;51.222;6.480;2022-09-17T00:28:03;10.18;;;3.15;;
36497;SDS011;22513;51.222;6.480;2022-09-17T00:30:29;9.23;;;2.80;;
36497;SDS011;22513;51.222;6.480;2022-09-17T00:32:55;15.52;;;3.45;;
36497;SDS011;22513;51.222;6.480;2022-09-17T00:35:22;11.15;;;2.70;;
36497;SDS011;22513;51.222;6.480;2022-09-17T00:37:50;16.70;;;3.80;;
36497;SDS011;22513;51.222;6.480;2022-09-17T00:40:17;12.70;;;3.33;;
36497;SDS011;22513;51.222;6.480;2022-09-17T00:42:43;12.38;;;3.05;;
36497;SDS011;22513;51.222;6.480;2022-09-17T00:45:10;9.88;;;3.00;;
36497;SDS011;22513;51.222;6.480;2022-09-17T00:50:05;13.23;;;2.67;;
36497;SDS011;22513;51.222;6.480;2022-09-17T00:52:50;12.52;;;3.30;;
36497;SDS011;22513;51.222;6.480;2022-09-17T00:55:23;10.73;;;3.40;;
36497;SDS011;22513;51.222;6.480;2022-09-17T00:57:55;9.75;;;2.97;;
36497;SDS011;22513;51.222;6.480;2022-09-17T01:00:23;10.80;;;2.60;;
36497;SDS011;22513;51.222;6.480;2022-09-17T01:02:50;11.02;;;3.38;;
36497;SDS011;22513;51.222;6.480;2022-09-17T01:05:17;10.93;;;2.35;;
36497;SDS011;22513;51.222;6.480;2022-09-17T01:10:24;13.98;;;2.95;;
36497;SDS011;22513;51.222;6.480;2022-09-17T01:15:53;11.93;;;2.83;;
36497;SDS011;22513;51.222;6.480;2022-09-17T01:18:34;10.55;;;3.70;;
36497;SDS011;22513;51.222;6.480;2022-09-17T01:26:42;9.73;;;3.63;;
36497;SDS011;22513;51.222;6.480;2022-09-17T01:32:17;11.80;;;4.30;;
36497;SDS011;22513;51.222;6.480;2022-09-17T01:39:59;14.48;;;2.35;;
36497;SDS011;22513;51.222;6.480;2022-09-17T01:42:36;9.77;;;3.85;;
36497;SDS011;22513;51.222;6.480;2022-09-17T01:48:11;14.05;;;3.67;;
36497;SDS011;22513;51.222;6.480;2022-09-17T01:50:55;7.90;;;2.90;;
36497;SDS011;22513;51.222;6.480;2022-09-17T01:56:30;13.25;;;3.13;;
36497;SDS011;22513;51.222;6.480;2022-09-17T01:59:12;9.65;;;2.75;;
36497;SDS011;22513;51.222;6.480;2022-09-17T02:02:00;15.77;;;4.18;;
36497;SDS011;22513;51.222;6.480;2022-09-17T02:04:32;4.95;;;2.03;;
36497;SDS011;22513;51.222;6.480;2022-09-17T02:07:05;9.10;;;2.72;;
36497;SDS011;22513;51.222;6.480;2022-09-17T02:09:41;13.48;;;2.97;;
36497;SDS011;22513;51.222;6.480;2022-09-17T02:12:10;11.50;;;2.97;;
36497;SDS011;22513;51.222;6.480;2022-09-17T02:14:46;18.23;;;3.25;;
36497;SDS011;22513;51.222;6.480;2022-09-17T02:17:34;7.88;;;3.10;;
36497;SDS011;22513;51.222;6.480;2022-09-17T02:20:03;11.80;;;2.40;;
36497;SDS011;22513;51.222;6.480;2022-09-17T02:30:30;12.45;;;2.28;;
36497;SDS011;22513;51.222;6.480;2022-09-17T02:32:56;7.53;;;2.65;;
36497;SDS011;22513;51.222;6.480;2022-09-17T02:35:21;13.57;;;3.00;;
36497;SDS011;22513;51.222;6.480;2022-09-17T02:37:47;16.52;;;3.45;;
36497;SDS011;22513;51.222;6.480;2022-09-17T02:40:14;10.10;;;2.42;;
36497;SDS011;22513;51.222;6.480;2022-09-17T02:56:59;10.02;;;2.40;;
36497;SDS011;22513;51.222;6.480;2022-09-17T03:02:11;10.33;;;2.40;;
36497;SDS011;22513;51.222;6.480;2022-09-17T03:04:41;8.88;;;2.08;;
36497;SDS011;22513;51.222;6.480;2022-09-17T03:07:07;10.93;;;3.00;;
36497;SDS011;22513;51.222;6.480;2022-09-17T03:09:35;15.05;;;3.17;;
36497;SDS011;22513;51.222;6.480;2022-09-17T03:12:01;8.55;;;2.15;;
36497;SDS011;22513;51.222;6.480;2022-09-17T03:14:28;18.27;;;2.70;;
36497;SDS011;22513;51.222;6.480;2022-09-17T03:16:53;9.65;;;2.53;;
36497;SDS011;22513;51.222;6.480;2022-09-17T03:19:19;10.43;;;2.13;;
36497;SDS011;22513;51.222;6.480;2022-09-17T03:21:44;9.85;;;2.50;;
36497;SDS011;22513;51.222;6.480;2022-09-17T03:24:10;11.60;;;3.08;;
36497;SDS011;22513;51.222;6.480;2022-09-17T03:26:36;11.15;;;2.50;;
36497;SDS011;22513;51.222;6.480;2022-09-17T03:29:02;10.68;;;3.20;;
36497;SDS011;22513;51.222;6.480;2022-09-17T03:31:28;11.98;;;2.50;;
36497;SDS011;22513;51.222;6.480;2022-09-17T03:33:54;9.15;;;2.50;;
36497;SDS011;22513;51.222;6.480;2022-09-17T03:36:19;8.63;;;2.35;;
36497;SDS011;22513;51.222;6.480;2022-09-17T03:38:45;16.55;;;2.53;;
36497;SDS011;22513;51.222;6.480;2022-09-17T03:41:10;11.20;;;2.60;;
36497;SDS011;22513;51.222;6.480;2022-09-17T03:43:36;21.63;;;3.70;;
36497;SDS011;22513;51.222;6.480;2022-09-17T03:46:03;14.02;;;2.83;;
36497;SDS011;22513;51.222;6.480;2022-09-17T03:48:29;16.20;;;3.10;;
36497;SDS011;22513;51.222;6.480;2022-09-17T03:50:56;15.23;;;3.28;;
36497;SDS011;22513;51.222;6.480;2022-09-17T03:53:22;12.70;;;2.63;;
36497;SDS011;22513;51.222;6.480;2022-09-17T03:55:47;11.90;;;3.00;;
36497;SDS011;22513;51.222;6.480;2022-09-17T03:58:13;10.88;;;3.10;;
36497;SDS011;22513;51.222;6.480;2022-09-17T04:00:39;13.43;;;2.50;;
36497;SDS011;22513;51.222;6.480;2022-09-17T04:03:05;26.88;;;4.95;;
36497;SDS011;22513;51.222;6.480;2022-09-17T04:05:30;14.70;;;4.13;;
36497;SDS011;22513;51.222;6.480;2022-09-17T04:07:57;11.55;;;2.08;;
36497;SDS011;22513;51.222;6.480;2022-09-17T04:10:23;12.43;;;2.72;;
36497;SDS011;22513;51.222;6.480;2022-09-17T04:12:49;13.38;;;2.45;;
36497;SDS011;22513;51.222;6.480;2022-09-17T04:15:14;10.25;;;2.17;;
36497;SDS011;22513;51.222;6.480;2022-09-17T04:17:40;13.70;;;2.55;;
36497;SDS011;22513;51.222;6.480;2022-09-17T04:20:06;12.35;;;2.33;;
36497;SDS011;22513;51.222;6.480;2022-09-17T04:22:32;19.58;;;3.42;;
36497;SDS011;22513;51.222;6.480;2022-09-17T04:24:57;16.58;;;6.10;;
36497;SDS011;22513;51.222;6.480;2022-09-17T04:27:23;11.30;;;2.92;;
36497;SDS011;22513;51.222;6.480;2022-09-17T04:29:49;15.82;;;2.95;;
36497;SDS011;22513;51.222;6.480;2022-09-17T04:32:15;4.68;;;1.52;;
36497;SDS011;22513;51.222;6.480;2022-09-17T04:34:40;13.70;;;3.15;;
36497;SDS011;22513;51.222;6.480;2022-09-17T04:37:06;17.27;;;2.22;;
36497;SDS011;22513;51.222;6.480;2022-09-17T04:39:31;15.43;;;3.05;;
36497;SDS011;22513;51.222;6.480;2022-09-17T04:41:57;14.20;;;3.08;;
36497;SDS011;22513;51.222;6.480;2022-09-17T04:44:23;12.63;;;2.28;;
36497;SDS011;22513;51.222;6.480;2022-09-17T04:46:48;14.70;;;2.42;;
36497;SDS011;22513;51.222;6.480;2022-09-17T04:49:14;14.55;;;2.35;;
36497;SDS011;22513;51.222;6.480;2022-09-17T04:51:39;22.52;;;3.00;;
36497;SDS011;22513;51.222;6.480;2022-09-17T04:54:07;16.95;;;2.58;;
36497;SDS011;22513;51.222;6.480;2022-09-17T04:56:33;18.67;;;2.35;;
36497;SDS011;22513;51.222;6.480;2022-09-17T04:58:59;11.57;;;1.98;;
36497;SDS011;22513;51.222;6.480;2022-09-17T05:01:24;12.05;;;2.40;;
36497;SDS011;22513;51.222;6.480;2022-09-17T05:03:50;16.52;;;2.35;;
36497;SDS011;22513;51.222;6.480;2022-09-17T05:06:15;13.10;;;2.50;;
36497;SDS011;22513;51.222;6.480;2022-09-17T05:08:41;15.70;;;2.50;;
36497;SDS011;22513;51.222;6.480;2022-09-17T05:11:07;9.82;;;1.80;;
36497;SDS011;22513;51.222;6.480;2022-09-17T05:13:32;17.45;;;2.08;;
36497;SDS011;22513;51.222;6.480;2022-09-17T05:15:58;19.83;;;2.35;;
36497;SDS011;22513;51.222;6.480;2022-09-17T05:18:23;18.13;;;2.20;;
36497;SDS011;22513;51.222;6.480;2022-09-17T05:20:50;10.63;;;2.13;;
36497;SDS011;22513;51.222;6.480;2022-09-17T05:23:16;15.40;;;2.72;;
36497;SDS011;22513;51.222;6.480;2022-09-17T05:25:41;51.08;;;17.42;;
36497;SDS011;22513;51.222;6.480;2022-09-17T05:28:07;30.20;;;12.35;;
36497;SDS011;22513;51.222;6.480;2022-09-17T05:30:33;13.68;;;2.92;;
36497;SDS011;22513;51.222;6.480;2022-09-17T05:33:03;12.88;;;2.20;;
36497;SDS011;22513;51.222;6.480;2022-09-17T05:35:31;12.50;;;2.85;;
36497;SDS011;22513;51.222;6.480;2022-09-17T05:37:58;8.77;;;2.22;;
36497;SDS011;22513;51.222;6.480;2022-09-17T05:40:25;12.15;;;2.00;;
36497;SDS011;22513;51.222;6.480;2022-09-17T05:42:51;7.75;;;2.05;;
36497;SDS011;22513;51.222;6.480;2022-09-17T05:45:21;13.32;;;3.13;;
36497;SDS011;22513;51.222;6.480;2022-09-17T05:47:47;18.85;;;3.08;;
36497;SDS011;22513;51.222;6.480;2022-09-17T05:50:12;16.15;;;2.65;;
36497;SDS011;22513;51.222;6.480;2022-09-17T05:52:38;7.25;;;2.38;;
36497;SDS011;22513;51.222;6.480;2022-09-17T05:55:04;6.47;;;1.33;;
36497;SDS011;22513;51.222;6.480;2022-09-17T05:57:29;6.22;;;1.40;;
36497;SDS011;22513;51.222;6.480;2022-09-17T05:59:55;5.40;;;1.98;;
36497;SDS011;22513;51.222;6.480;2022-09-17T06:02:21;7.72;;;1.45;;
36497;SDS011;22513;51.222;6.480;2022-09-17T06:04:46;5.40;;;1.40;;
36497;SDS011;22513;51.222;6.480;2022-09-17T06:07:12;9.55;;;1.88;;
36497;SDS011;22513;51.222;6.480;2022-09-17T06:09:37;5.85;;;1.60;;
36497;SDS011;22513;51.222;6.480;2022-09-17T06:12:05;6.78;;;1.52;;
36497;SDS011;22513;51.222;6.480;2022-09-17T06:14:30;6.22;;;1.30;;
36497;SDS011;22513;51.222;6.480;2022-09-17T06:16:56;15.23;;;6.35;;
36497;SDS011;22513;51.222;6.480;2022-09-17T06:19:22;5.13;;;1.48;;
36497;SDS011;22513;51.222;6.480;2022-09-17T06:21:47;8.30;;;2.00;;
36497;SDS011;22513;51.222;6.480;2022-09-17T06:24:14;13.02;;;2.95;;
36497;SDS011;22513;51.222;6.480;2022-09-17T06:26:40;7.05;;;1.25;;
36497;SDS011;22513;51.222;6.480;2022-09-17T06:29:06;10.63;;;2.03;;
36497;SDS011;22513;51.222;6.480;2022-09-17T06:31:31;4.03;;;1.40;;
36497;SDS011;22513;51.222;6.480;2022-09-17T06:33:57;9.20;;;2.10;;
36497;SDS011;22513;51.222;6.480;2022-09-17T06:36:23;9.70;;;2.38;;
36497;SDS011;22513;51.222;6.480;2022-09-17T06:38:48;4.65;;;1.60;;
36497;SDS011;22513;51.222;6.480;2022-09-17T06:41:14;7.93;;;2.63;;
36497;SDS011;22513;51.222;6.480;2022-09-17T06:43:41;8.70;;;1.77;;
36497;SDS011;22513;51.222;6.480;2022-09-17T06:46:07;18.88;;;7.13;;
36497;SDS011;22513;51.222;6.480;2022-09-17T06:48:34;16.35;;;2.45;;
36497;SDS011;22513;51.222;6.480;2022-09-17T06:51:01;5.57;;;1.48;;
36497;SDS011;22513;51.222;6.480;2022-09-17T06:53:28;10.23;;;1.77;;
36497;SDS011;22513;51.222;6.480;2022-09-17T06:55:55;6.47;;;1.33;;
36497;SDS011;22513;51.222;6.480;2022-09-17T06:58:22;4.35;;;1.60;;
36497;SDS011;22513;51.222;6.480;2022-09-17T07:00:48;8.93;;;1.50;;
36497;SDS011;22513;51.222;6.480;2022-09-17T07:03:14;8.85;;;1.30;;
36497;SDS011;22513;51.222;6.480;2022-09-17T07:05:41;8.90;;;2.38;;
36497;SDS011;22513;51.222;6.480;2022-09-17T07:08:08;6.95;;;1.25;;
36497;SDS011;22513;51.222;6.480;2022-09-17T07:10:35;11.23;;;2.08;;
36497;SDS011;22513;51.222;6.480;2022-09-17T07:13:01;7.00;;;1.45;;
36497;SDS011;22513;51.222;6.480;2022-09-17T07:15:28;8.40;;;1.67;;
36497;SDS011;22513;51.222;6.480;2022-09-17T07:17:53;8.20;;;1.60;;
36497;SDS011;22513;51.222;6.480;2022-09-17T07:20:19;7.78;;;1.40;;
36497;SDS011;22513;51.222;6.480;2022-09-17T07:22:45;3.63;;;1.20;;
36497;SDS011;22513;51.222;6.480;2022-09-17T07:25:18;7.55;;;1.17;;
36497;SDS011;22513;51.222;6.480;2022-09-17T07:27:44;5.50;;;1.27;;
36497;SDS011;22513;51.222;6.480;2022-09-17T07:30:10;7.93;;;1.50;;
36497;SDS011;22513;51.222;6.480;2022-09-17T07:32:36;6.63;;;1.48;;
36497;SDS011;22513;51.222;6.480;2022-09-17T07:35:02;7.57;;;1.75;;
36497;SDS011;22513;51.222;6.480;2022-09-17T07:37:28;5.22;;;1.30;;
36497;SDS011;22513;51.222;6.480;2022-09-17T07:39:54;5.43;;;1.70;;
36497;SDS011;22513;51.222;6.480;2022-09-17T07:42:19;7.40;;;1.48;;
36497;SDS011;22513;51.222;6.480;2022-09-17T07:44:45;6.00;;;1.50;;
36497;SDS011;22513;51.222;6.480;2022-09-17T07:47:11;4.03;;;0.93;;
36497;SDS011;22513;51.222;6.480;2022-09-17T07:49:36;7.88;;;1.95;;
36497;SDS011;22513;51.222;6.480;2022-09-17T07:52:02;6.95;;;1.20;;
36497;SDS011;22513;51.222;6.480;2022-09-17T07:54:30;5.40;;;1.33;;
36497;SDS011;22513;51.222;6.480;2022-09-17T07:56:57;8.40;;;1.35;;
36497;SDS011;22513;51.222;6.480;2022-09-17T07:59:23;8.57;;;1.20;;
36497;SDS011;22513;51.222;6.480;2022-09-17T08:01:49;6.47;;;1.42;;
36497;SDS011;22513;51.222;6.480;2022-09-17T08:04:15;7.75;;;1.70;;
36497;SDS011;22513;51.222;6.480;2022-09-17T08:06:41;5.47;;;1.45;;
36497;SDS011;22513;51.222;6.480;2022-09-17T08:09:06;3.28;;;1.10;;
36497;SDS011;22513;51.222;6.480;2022-09-17T08:11:34;10.13;;;1.77;;
36497;SDS011;22513;51.222;6.480;2022-09-17T08:14:00;5.80;;;0.90;;
36497;SDS011;22513;51.222;6.480;2022-09-17T08:16:26;6.35;;;1.48;;
36497;SDS011;22513;51.222;6.480;2022-09-17T08:18:53;3.47;;;1.35;;
36497;SDS011;22513;51.222;6.480;2022-09-17T08:21:20;5.88;;;1.38;;
36497;SDS011;22513;51.222;6.480;2022-09-17T08:23:45;6.22;;;1.60;;
36497;SDS011;22513;51.222;6.480;2022-09-17T08:26:15;11.82;;;1.85;;
36497;SDS011;22513;51.222;6.480;2022-09-17T08:28:46;7.28;;;1.30;;
36497;SDS011;22513;51.222;6.480;2022-09-17T08:31:13;6.88;;;1.50;;
36497;SDS011;22513;51.222;6.480;2022-09-17T08:33:40;10.82;;;2.17;;
36497;SDS011;22513;51.222;6.480;2022-09-17T08:36:07;4.70;;;1.00;;
36497;SDS011;22513;51.222;6.480;2022-09-17T08:38:35;6.15;;;1.38;;
36497;SDS011;22513;51.222;6.480;2022-09-17T08:43:30;2.97;;;1.50;;
36497;SDS011;22513;51.222;6.480;2022-09-17T08:45:59;7.45;;;1.45;;
36497;SDS011;22513;51.222;6.480;2022-09-17T08:48:27;6.40;;;1.20;;
36497;SDS011;22513;51.222;6.480;2022-09-17T08:51:05;3.65;;;1.20;;
36497;SDS011;22513;51.222;6.480;2022-09-17T08:56:48;6.32;;;1.25;;
36497;SDS011;22513;51.222;6.480;2022-09-17T08:59:25;6.95;;;1.60;;
36497;SDS011;22513;51.222;6.480;2022-09-17T09:01:59;6.18;;;1.17;;
36497;SDS011;22513;51.222;6.480;2022-09-17T09:07:13;4.45;;;1.23;;
36497;SDS011;22513;51.222;6.480;2022-09-17T09:10:11;5.68;;;0.93;;
36497;SDS011;22513;51.222;6.480;2022-09-17T09:15:17;5.20;;;1.00;;
36497;SDS011;22513;51.222;6.480;2022-09-17T09:18:19;5.43;;;1.50;;
36497;SDS011;22513;51.222;6.480;2022-09-17T09:20:58;5.90;;;0.80;;
36497;SDS011;22513;51.222;6.480;2022-09-17T09:26:17;4.50;;;0.93;;
36497;SDS011;22513;51.222;6.480;2022-09-17T09:29:01;4.25;;;1.13;;
36497;SDS011;22513;51.222;6.480;2022-09-17T09:34:13;4.80;;;1.00;;
36497;SDS011;22513;51.222;6.480;2022-09-17T09:36:40;3.03;;;1.00;;
36497;SDS011;22513;51.222;6.480;2022-09-17T09:42:08;5.15;;;1.10;;
36497;SDS011;22513;51.222;6.480;2022-09-17T09:44:40;3.60;;;1.00;;
36497;SDS011;22513;51.222;6.480;2022-09-17T09:55:10;6.60;;;1.30;;
36497;SDS011;22513;51.222;6.480;2022-09-17T10:00:37;5.55;;;1.15;;
36497;SDS011;22513;51.222;6.480;2022-09-17T10:03:25;6.18;;;1.30;;
36497;SDS011;22513;51.222;6.480;2022-09-17T10:06:03;1.60;;;0.95;;
36497;SDS011;22513;51.222;6.480;2022-09-17T10:08:34;3.08;;;0.80;;
36497;SDS011;22513;51.222;6.480;2022-09-17T10:13:33;7.65;;;1.67;;
36497;SDS011;22513;51.222;6.480;2022-09-17T10:16:20;8.20;;;0.95;;
36497;SDS011;22513;51.222;6.480;2022-09-17T10:18:48;6.82;;;1.10;;
36497;SDS011;22513;51.222;6.480;2022-09-17T10:21:30;2.47;;;0.90;;
36497;SDS011;22513;51.222;6.480;2022-09-17T10:24:02;3.42;;;0.93;;
36497;SDS011;22513;51.222;6.480;2022-09-17T10:26:36;1.92;;;0.70;;
36497;SDS011;22513;51.222;6.480;2022-09-17T10:29:02;5.38;;;1.42;;
36497;SDS011;22513;51.222;6.480;2022-09-17T10:31:51;5.50;;;2.13;;
36497;SDS011;22513;51.222;6.480;2022-09-17T10:36:49;4.45;;;0.77;;
36497;SDS011;22513;51.222;6.480;2022-09-17T10:44:29;3.67;;;0.70;;
36497;SDS011;22513;51.222;6.480;2022-09-17T10:47:03;9.13;;;1.00;;
36497;SDS011;22513;51.222;6.480;2022-09-17T10:49:41;5.63;;;1.10;;
36497;SDS011;22513;51.222;6.480;2022-09-17T10:52:19;5.28;;;1.10;;
36497;SDS011;22513;51.222;6.480;2022-09-17T11:08:42;6.03;;;1.08;;
36497;SDS011;22513;51.222;6.480;2022-09-17T11:19:24;4.55;;;0.90;;
36497;SDS011;22513;51.222;6.480;2022-09-17T11:41:03;6.30;;;1.70;;
36497;SDS011;22513;51.222;6.480;2022-09-17T11:46:46;7.55;;;1.40;;
36497;SDS011;22513;51.222;6.480;2022-09-17T11:49:26;4.30;;;1.00;;
36497;SDS011;22513;51.222;6.480;2022-09-17T11:52:06;6.85;;;1.98;;
36497;SDS011;22513;51.222;6.480;2022-09-17T11:57:36;7.95;;;1.30;;
36497;SDS011;22513;51.222;6.480;2022-09-17T12:05:18;3.65;;;1.00;;
36497;SDS011;22513;51.222;6.480;2022-09-17T12:13:46;5.80;;;2.03;;
36497;SDS011;22513;51.222;6.480;2022-09-17T12:21:35;2.10;;;0.85;;
36497;SDS011;22513;51.222;6.480;2022-09-17T12:56:45;4.75;;;1.08;;
36497;SDS011;22513;51.222;6.480;2022-09-17T12:59:28;3.80;;;0.93;;
36497;SDS011;22513;51.222;6.480;2022-09-17T13:21:11;3.25;;;1.42;;
36497;SDS011;22513;51.222;6.480;2022-09-17T13:23:45;5.88;;;1.15;;
36497;SDS011;22513;51.222;6.480;2022-09-17T13:26:14;3.67;;;0.90;;
36497;SDS011;22513;51.222;6.480;2022-09-17T13:28:43;3.35;;;1.30;;
36497;SDS011;22513;51.222;6.480;2022-09-17T13:31:11;4.10;;;0.95;;
36497;SDS011;22513;51.222;6.480;2022-09-17T13:33:56;2.03;;;0.90;;
36497;SDS011;22513;51.222;6.480;2022-09-17T13:45:11;5.40;;;0.80;;
36497;SDS011;22513;51.222;6.480;2022-09-17T13:58:32;4.78;;;1.40;;
36497;SDS011;22513;51.222;6.480;2022-09-17T14:01:15;2.83;;;0.93;;
36497;SDS011;22513;51.222;6.480;2022-09-17T14:18:01;4.45;;;0.93;;
36497;SDS011;22513;51.222;6.480;2022-09-17T14:20:47;2.72;;;0.80;;
36497;SDS011;22513;51.222;6.480;2022-09-17T14:23:13;5.40;;;0.80;;
36497;SDS011;22513;51.222;6.480;2022-09-17T14:25:41;3.33;;;0.73;;
36497;SDS011;22513;51.222;6.480;2022-09-17T14:28:14;4.75;;;0.90;;
36497;SDS011;22513;51.222;6.480;2022-09-17T14:30:51;2.70;;;0.77;;
36497;SDS011;22513;51.222;6.480;2022-09-17T14:33:17;5.75;;;1.40;;
36497;SDS011;22513;51.222;6.480;2022-09-17T14:35:51;7.25;;;1.45;;
36497;SDS011;22513;51.222;6.480;2022-09-17T14:38:31;4.05;;;1.90;;
36497;SDS011;22513;51.222;6.480;2022-09-17T14:41:04;4.70;;;0.98;;
36497;SDS011;22513;51.222;6.480;2022-09-17T14:43:59;4.97;;;1.25;;
36497;SDS011;22513;51.222;6.480;2022-09-17T14:46:35;9.07;;;1.90;;
36497;SDS011;22513;51.222;6.480;2022-09-17T14:49:14;4.57;;;1.05;;
36497;SDS011;22513;51.222;6.480;2022-09-17T14:51:50;12.02;;;1.55;;
36497;SDS011;22513;51.222;6.480;2022-09-17T14:56:59;5.32;;;1.25;;
36497;SDS011;22513;51.222;6.480;2022-09-17T15:04:53;4.22;;;1.08;;
36497;SDS011;22513;51.222;6.480;2022-09-17T15:07:19;4.85;;;1.00;;
36497;SDS011;22513;51.222;6.480;2022-09-17T15:09:46;6.85;;;1.23;;
36497;SDS011;22513;51.222;6.480;2022-09-17T15:12:13;8.18;;;1.35;;
36497;SDS011;22513;51.222;6.480;2022-09-17T15:17:15;5.65;;;1.58;;
36497;SDS011;22513;51.222;6.480;2022-09-17T15:19:47;4.88;;;1.10;;
36497;SDS011;22513;51.222;6.480;2022-09-17T15:24:54;4.13;;;1.33;;
36497;SDS011;22513;51.222;6.480;2022-09-17T15:30:04;5.25;;;1.17;;
36497;SDS011;22513;51.222;6.480;2022-09-17T15:32:31;2.75;;;0.80;;
36497;SDS011;22513;51.222;6.480;2022-09-17T15:37:45;5.70;;;1.40;;
36497;SDS011;22513;51.222;6.480;2022-09-17T15:40:28;2.83;;;1.00;;
36497;SDS011;22513;51.222;6.480;2022-09-17T15:43:00;3.03;;;1.05;;
36497;SDS011;22513;51.222;6.480;2022-09-17T15:45:29;3.30;;;0.60;;
36497;SDS011;22513;51.222;6.480;2022-09-17T15:48:03;5.75;;;1.17;;
36497;SDS011;22513;51.222;6.480;2022-09-17T15:50:31;5.38;;;1.08;;
36497;SDS011;22513;51.222;6.480;2022-09-17T15:53:19;7.47;;;1.23;;
36497;SDS011;22513;51.222;6.480;2022-09-17T15:58:36;6.40;;;1.40;;
36497;SDS011;22513;51.222;6.480;2022-09-17T16:08:53;6.07;;;1.88;;
36497;SDS011;22513;51.222;6.480;2022-09-17T16:11:21;7.10;;;1.52;;
36497;SDS011;22513;51.222;6.480;2022-09-17T16:13:48;8.25;;;1.50;;
36497;SDS011;22513;51.222;6.480;2022-09-17T16:16:19;6.10;;;1.10;;
36497;SDS011;22513;51.222;6.480;2022-09-17T16:18:46;6.10;;;1.23;;
36497;SDS011;22513;51.222;6.480;2022-09-17T16:21:13;5.68;;;1.25;;
36497;SDS011;22513;51.222;6.480;2022-09-17T16:23:40;6.70;;;1.17;;
36497;SDS011;22513;51.222;6.480;2022-09-17T16:26:06;4.72;;;1.63;;
36497;SDS011;22513;51.222;6.480;2022-09-17T16:28:37;7.75;;;1.77;;
36497;SDS011;22513;51.222;6.480;2022-09-17T16:31:04;3.13;;;0.80;;
36497;SDS011;22513;51.222;6.480;2022-09-17T16:33:30;5.75;;;1.42;;
36497;SDS011;22513;51.222;6.480;2022-09-17T16:35:56;5.85;;;1.38;;
36497;SDS011;22513;51.222;6.480;2022-09-17T16:38:23;7.70;;;1.25;;
36497;SDS011;22513;51.222;6.480;2022-09-17T16:40:49;7.95;;;2.72;;
36497;SDS011;22513;51.222;6.480;2022-09-17T16:43:15;5.90;;;0.95;;
36497;SDS011;22513;51.222;6.480;2022-09-17T16:45:42;6.00;;;1.20;;
36497;SDS011;22513;51.222;6.480;2022-09-17T16:48:08;5.68;;;1.38;;
36497;SDS011;22513;51.222;6.480;2022-09-17T16:50:34;8.27;;;1.90;;
36497;SDS011;22513;51.222;6.480;2022-09-17T16:53:05;5.78;;;1.50;;
36497;SDS011;22513;51.222;6.480;2022-09-17T16:55:30;6.90;;;1.50;;
36497;SDS011;22513;51.222;6.480;2022-09-17T16:57:56;9.30;;;2.33;;
36497;SDS011;22513;51.222;6.480;2022-09-17T17:00:22;5.10;;;1.40;;
36497;SDS011;22513;51.222;6.480;2022-09-17T17:02:52;8.77;;;1.58;;
36497;SDS011;22513;51.222;6.480;2022-09-17T17:05:19;9.60;;;2.28;;
36497;SDS011;22513;51.222;6.480;2022-09-17T17:07:45;7.65;;;1.80;;
36497;SDS011;22513;51.222;6.480;2022-09-17T17:10:11;4.53;;;1.10;;
36497;SDS011;22513;51.222;6.480;2022-09-17T17:12:37;8.95;;;1.70;;
36497;SDS011;22513;51.222;6.480;2022-09-17T17:15:05;9.38;;;1.77;;
36497;SDS011;22513;51.222;6.480;2022-09-17T17:17:33;10.55;;;1.65;;
36497;SDS011;22513;51.222;6.480;2022-09-17T17:20:00;9.80;;;2.50;;
36497;SDS011;22513;51.222;6.480;2022-09-17T17:22:42;8.52;;;2.42;;
36497;SDS011;22513;51.222;6.480;2022-09-17T17:25:09;8.35;;;1.58;;
36497;SDS011;22513;51.222;6.480;2022-09-17T17:27:36;6.70;;;1.90;;
36497;SDS011;22513;51.222;6.480;2022-09-17T17:30:03;10.20;;;2.08;;
36497;SDS011;22513;51.222;6.480;2022-09-17T17:32:31;9.68;;;1.98;;
36497;SDS011;22513;51.222;6.480;2022-09-17T17:34:57;5.50;;;1.60;;
36497;SDS011;22513;51.222;6.480;2022-09-17T17:37:23;9.02;;;1.90;;
36497;SDS011;22513;51.222;6.480;2022-09-17T17:39:48;10.18;;;2.50;;
36497;SDS011;22513;51.222;6.480;2022-09-17T17:42:14;9.50;;;1.42;;
36497;SDS011;22513;51.222;6.480;2022-09-17T17:44:40;6.47;;;1.88;;
36497;SDS011;22513;51.222;6.480;2022-09-17T17:47:05;4.88;;;1.67;;
36497;SDS011;22513;51.222;6.480;2022-09-17T17:49:31;8.98;;;1.92;;
36497;SDS011;22513;51.222;6.480;2022-09-17T17:51:57;8.68;;;1.60;;
36497;SDS011;22513;51.222;6.480;2022-09-17T17:54:24;12.88;;;2.70;;
36497;SDS011;22513;51.222;6.480;2022-09-17T17:56:51;13.52;;;3.40;;
36497;SDS011;22513;51.222;6.480;2022-09-17T17:59:17;11.52;;;4.63;;
36497;SDS011;22513;51.222;6.480;2022-09-17T18:01:43;18.90;;;4.32;;
36497;SDS011;22513;51.222;6.480;2022-09-17T18:04:08;16.17;;;4.80;;
36497;SDS011;22513;51.222;6.480;2022-09-17T18:06:34;10.25;;;2.70;;
36497;SDS011;22513;51.222;6.480;2022-09-17T18:09:00;11.43;;;2.58;;
36497;SDS011;22513;51.222;6.480;2022-09-17T18:11:27;8.95;;;1.90;;
36497;SDS011;22513;51.222;6.480;2022-09-17T18:13:54;10.68;;;2.08;;
36497;SDS011;22513;51.222;6.480;2022-09-17T18:16:21;8.05;;;2.25;;
36497;SDS011;22513;51.222;6.480;2022-09-17T18:18:47;9.25;;;1.90;;
36497;SDS011;22513;51.222;6.480;2022-09-17T18:21:14;10.95;;;2.20;;
36497;SDS011;22513;51.222;6.480;2022-09-17T18:23:42;13.95;;;2.08;;
36497;SDS011;22513;51.222;6.480;2022-09-17T18:26:12;12.07;;;2.53;;
36497;SDS011;22513;51.222;6.480;2022-09-17T18:28:43;10.35;;;2.50;;
36497;SDS011;22513;51.222;6.480;2022-09-17T18:31:18;11.20;;;2.40;;
36497;SDS011;22513;51.222;6.480;2022-09-17T18:33:55;11.85;;;2.15;;
36497;SDS011;22513;51.222;6.480;2022-09-17T18:36:30;10.93;;;2.25;;
36497;SDS011;22513;51.222;6.480;2022-09-17T18:38:57;9.93;;;1.75;;
36497;SDS011;22513;51.222;6.480;2022-09-17T18:41:28;9.05;;;2.17;;
36497;SDS011;22513;51.222;6.480;2022-09-17T19:27:41;4.30;;;1.50;;
36497;SDS011;22513;51.222;6.480;2022-09-17T19:30:08;4.82;;;1.20;;
36497;SDS011;22513;51.222;6.480;2022-09-17T19:32:34;8.45;;;1.50;;
36497;SDS011;22513;51.222;6.480;2022-09-17T19:34:59;5.55;;;1.17;;
36497;SDS011;22513;51.222;6.480;2022-09-17T19:37:25;6.50;;;1.45;;
36497;SDS011;22513;51.222;6.480;2022-09-17T19:39:51;4.68;;;1.42;;
36497;SDS011;22513;51.222;6.480;2022-09-17T19:42:16;3.65;;;1.10;;
36497;SDS011;22513;51.222;6.480;2022-09-17T19:44:42;4.90;;;1.30;;
36497;SDS011;22513;51.222;6.480;2022-09-17T19:47:07;4.43;;;0.98;;
36497;SDS011;22513;51.222;6.480;2022-09-17T19:49:33;5.32;;;1.55;;
36497;SDS011;22513;51.222;6.480;2022-09-17T19:51:59;4.25;;;1.52;;
36497;SDS011;22513;51.222;6.480;2022-09-17T19:54:24;7.07;;;1.13;;
36497;SDS011;22513;51.222;6.480;2022-09-17T19:56:50;4.82;;;1.40;;
36497;SDS011;22513;51.222;6.480;2022-09-17T19:59:16;8.18;;;1.27;;
36497;SDS011;22513;51.222;6.480;2022-09-17T20:01:41;3.53;;;1.00;;
36497;SDS011;22513;51.222;6.480;2022-09-17T20:04:08;9.52;;;1.30;;
36497;SDS011;22513;51.222;6.480;2022-09-17T20:06:34;6.03;;;1.30;;
36497;SDS011;22513;51.222;6.480;2022-09-17T20:09:00;6.28;;;1.20;;